sensor_id;sensor_type;location;lat;lon;timestamp;P1;durP1;ratioP1;P2;durP2;ratioP2
76801;SDS011;66403;50.832;10.950;2023-05-07T00:04:31;28.27;;;14.25;;
76801;SDS011;66403;50.832;10.950;2023-05-07T00:09:36;28.00;;;14.73;;
76801;SDS011;66403;50.832;10.950;2023-05-07T00:14:37;23.88;;;14.55;;
76801;SDS011;66403;50.832;10.950;2023-05-07T00:19:37;25.17;;;14.07;;
76801;SDS011;66403;50.832;10.950;2023-05-07T00:24:38;22.90;;;12.70;;
76801;SDS011;66403;50.832;10.950;2023-05-07T00:29:38;21.77;;;13.43;;
76801;SDS011;66403;50.832;10.950;2023-05-07T00:34:39;28.45;;;14.65;;
76801;SDS011;66403;50.832;10.950;2023-05-07T00:39:39;21.13;;;12.93;;
76801;SDS011;66403;50.832;10.950;2023-05-07T00:44:40;25.63;;;13.63;;
76801;SDS011;66403;50.832;10.950;2023-05-07T00:49:44;26.83;;;14.88;;
76801;SDS011;66403;50.832;10.950;2023-05-07T00:54:45;25.58;;;14.45;;
76801;SDS011;66403;50.832;10.950;2023-05-07T00:59:45;25.10;;;14.02;;
76801;SDS011;66403;50.832;10.950;2023-05-07T01:04:46;24.50;;;13.40;;
76801;SDS011;66403;50.832;10.950;2023-05-07T01:09:46;22.65;;;11.93;;
76801;SDS011;66403;50.832;10.950;2023-05-07T01:14:47;24.23;;;13.18;;
76801;SDS011;66403;50.832;10.950;2023-05-07T01:19:49;30.05;;;14.77;;
76801;SDS011;66403;50.832;10.950;2023-05-07T01:24:52;27.85;;;14.50;;
76801;SDS011;66403;50.832;10.950;2023-05-07T01:29:52;24.00;;;14.30;;
76801;SDS011;66403;50.832;10.950;2023-05-07T01:34:53;28.73;;;14.43;;
76801;SDS011;66403;50.832;10.950;2023-05-07T01:39:54;28.58;;;14.90;;
76801;SDS011;66403;50.832;10.950;2023-05-07T01:44:54;31.17;;;15.35;;
76801;SDS011;66403;50.832;10.950;2023-05-07T01:49:55;28.95;;;15.07;;
76801;SDS011;66403;50.832;10.950;2023-05-07T01:54:56;29.70;;;14.77;;
76801;SDS011;66403;50.832;10.950;2023-05-07T01:59:56;26.02;;;14.25;;
76801;SDS011;66403;50.832;10.950;2023-05-07T02:04:57;30.27;;;15.98;;
76801;SDS011;66403;50.832;10.950;2023-05-07T02:09:57;30.63;;;15.00;;
76801;SDS011;66403;50.832;10.950;2023-05-07T02:14:58;24.88;;;13.55;;
76801;SDS011;66403;50.832;10.950;2023-05-07T02:19:58;26.75;;;14.43;;
76801;SDS011;66403;50.832;10.950;2023-05-07T02:24:59;29.90;;;14.57;;
76801;SDS011;66403;50.832;10.950;2023-05-07T02:30:00;36.38;;;15.38;;
76801;SDS011;66403;50.832;10.950;2023-05-07T02:35:00;26.45;;;14.93;;
76801;SDS011;66403;50.832;10.950;2023-05-07T02:40:01;26.63;;;13.55;;
76801;SDS011;66403;50.832;10.950;2023-05-07T02:45:04;29.27;;;14.57;;
76801;SDS011;66403;50.832;10.950;2023-05-07T02:50:06;28.58;;;14.73;;
76801;SDS011;66403;50.832;10.950;2023-05-07T02:55:07;29.48;;;15.98;;
76801;SDS011;66403;50.832;10.950;2023-05-07T03:00:11;31.85;;;14.65;;
76801;SDS011;66403;50.832;10.950;2023-05-07T03:05:17;27.92;;;15.98;;
76801;SDS011;66403;50.832;10.950;2023-05-07T03:10:17;32.35;;;15.45;;
76801;SDS011;66403;50.832;10.950;2023-05-07T03:15:19;30.17;;;14.57;;
76801;SDS011;66403;50.832;10.950;2023-05-07T03:20:19;30.15;;;15.07;;
76801;SDS011;66403;50.832;10.950;2023-05-07T03:25:20;28.75;;;15.02;;
76801;SDS011;66403;50.832;10.950;2023-05-07T03:30:20;33.17;;;15.45;;
76801;SDS011;66403;50.832;10.950;2023-05-07T03:35:21;30.00;;;16.77;;
76801;SDS011;66403;50.832;10.950;2023-05-07T03:40:21;32.10;;;15.60;;
76801;SDS011;66403;50.832;10.950;2023-05-07T03:45:26;35.15;;;16.85;;
76801;SDS011;66403;50.832;10.950;2023-05-07T03:50:44;32.05;;;16.42;;
76801;SDS011;66403;50.832;10.950;2023-05-07T03:55:44;34.42;;;16.05;;
76801;SDS011;66403;50.832;10.950;2023-05-07T04:00:45;29.77;;;15.50;;
76801;SDS011;66403;50.832;10.950;2023-05-07T04:05:53;30.27;;;15.38;;
76801;SDS011;66403;50.832;10.950;2023-05-07T04:10:55;31.60;;;15.68;;
76801;SDS011;66403;50.832;10.950;2023-05-07T04:15:57;30.15;;;15.00;;
76801;SDS011;66403;50.832;10.950;2023-05-07T04:20:59;29.52;;;13.82;;
76801;SDS011;66403;50.832;10.950;2023-05-07T04:26:00;31.42;;;16.35;;
76801;SDS011;66403;50.832;10.950;2023-05-07T04:31:07;32.05;;;14.63;;
76801;SDS011;66403;50.832;10.950;2023-05-07T04:36:10;28.95;;;13.18;;
76801;SDS011;66403;50.832;10.950;2023-05-07T04:41:18;27.63;;;14.38;;
76801;SDS011;66403;50.832;10.950;2023-05-07T04:46:18;33.33;;;14.75;;
76801;SDS011;66403;50.832;10.950;2023-05-07T04:51:19;28.60;;;14.18;;
76801;SDS011;66403;50.832;10.950;2023-05-07T04:56:21;24.60;;;12.38;;
76801;SDS011;66403;50.832;10.950;2023-05-07T05:01:22;29.25;;;14.07;;
76801;SDS011;66403;50.832;10.950;2023-05-07T05:06:22;27.08;;;12.50;;
76801;SDS011;66403;50.832;10.950;2023-05-07T05:11:25;26.10;;;13.07;;
76801;SDS011;66403;50.832;10.950;2023-05-07T05:16:26;22.98;;;11.23;;
76801;SDS011;66403;50.832;10.950;2023-05-07T05:21:27;22.17;;;10.93;;
76801;SDS011;66403;50.832;10.950;2023-05-07T05:26:33;25.08;;;11.60;;
76801;SDS011;66403;50.832;10.950;2023-05-07T05:31:34;20.75;;;11.15;;
76801;SDS011;66403;50.832;10.950;2023-05-07T05:36:35;18.23;;;10.00;;
76801;SDS011;66403;50.832;10.950;2023-05-07T05:41:36;20.15;;;9.90;;
76801;SDS011;66403;50.832;10.950;2023-05-07T05:46:38;17.45;;;9.15;;
76801;SDS011;66403;50.832;10.950;2023-05-07T05:51:41;19.25;;;10.00;;
76801;SDS011;66403;50.832;10.950;2023-05-07T05:56:42;17.58;;;9.85;;
76801;SDS011;66403;50.832;10.950;2023-05-07T06:01:42;19.17;;;9.88;;
76801;SDS011;66403;50.832;10.950;2023-05-07T06:06:43;16.65;;;9.07;;
76801;SDS011;66403;50.832;10.950;2023-05-07T06:11:44;17.83;;;9.30;;
76801;SDS011;66403;50.832;10.950;2023-05-07T06:16:46;15.82;;;9.23;;
76801;SDS011;66403;50.832;10.950;2023-05-07T06:21:46;16.15;;;8.85;;
76801;SDS011;66403;50.832;10.950;2023-05-07T06:26:50;17.52;;;8.98;;
76801;SDS011;66403;50.832;10.950;2023-05-07T06:32:09;17.55;;;10.05;;
76801;SDS011;66403;50.832;10.950;2023-05-07T06:37:12;17.02;;;8.70;;
76801;SDS011;66403;50.832;10.950;2023-05-07T06:42:31;15.27;;;8.32;;
76801;SDS011;66403;50.832;10.950;2023-05-07T06:47:46;15.63;;;8.20;;
76801;SDS011;66403;50.832;10.950;2023-05-07T06:52:46;15.70;;;8.10;;
76801;SDS011;66403;50.832;10.950;2023-05-07T06:57:47;18.88;;;9.18;;
76801;SDS011;66403;50.832;10.950;2023-05-07T07:02:49;17.08;;;8.90;;
76801;SDS011;66403;50.832;10.950;2023-05-07T07:07:52;15.30;;;8.65;;
76801;SDS011;66403;50.832;10.950;2023-05-07T07:12:53;15.65;;;8.30;;
76801;SDS011;66403;50.832;10.950;2023-05-07T07:17:54;15.60;;;8.23;;
76801;SDS011;66403;50.832;10.950;2023-05-07T07:22:56;17.80;;;9.27;;
76801;SDS011;66403;50.832;10.950;2023-05-07T07:27:57;12.38;;;7.00;;
76801;SDS011;66403;50.832;10.950;2023-05-07T07:32:59;10.85;;;6.28;;
76801;SDS011;66403;50.832;10.950;2023-05-07T07:38:06;12.40;;;6.97;;
76801;SDS011;66403;50.832;10.950;2023-05-07T07:43:06;11.35;;;6.55;;
76801;SDS011;66403;50.832;10.950;2023-05-07T07:48:07;15.13;;;7.78;;
76801;SDS011;66403;50.832;10.950;2023-05-07T07:53:10;11.95;;;7.25;;
76801;SDS011;66403;50.832;10.950;2023-05-07T07:58:12;14.88;;;7.15;;
76801;SDS011;66403;50.832;10.950;2023-05-07T08:03:13;11.90;;;7.25;;
76801;SDS011;66403;50.832;10.950;2023-05-07T08:08:18;21.30;;;12.70;;
76801;SDS011;66403;50.832;10.950;2023-05-07T08:13:19;13.68;;;8.57;;
76801;SDS011;66403;50.832;10.950;2023-05-07T08:18:20;15.60;;;8.25;;
76801;SDS011;66403;50.832;10.950;2023-05-07T08:23:23;17.45;;;9.77;;
76801;SDS011;66403;50.832;10.950;2023-05-07T08:28:24;16.08;;;9.65;;
76801;SDS011;66403;50.832;10.950;2023-05-07T08:33:25;14.27;;;8.30;;
76801;SDS011;66403;50.832;10.950;2023-05-07T08:38:26;18.23;;;8.48;;
76801;SDS011;66403;50.832;10.950;2023-05-07T08:43:27;17.30;;;9.65;;
76801;SDS011;66403;50.832;10.950;2023-05-07T08:48:28;18.50;;;9.82;;
76801;SDS011;66403;50.832;10.950;2023-05-07T08:53:48;15.30;;;9.25;;
76801;SDS011;66403;50.832;10.950;2023-05-07T08:58:54;17.17;;;9.00;;
76801;SDS011;66403;50.832;10.950;2023-05-07T09:04:00;16.33;;;8.18;;
76801;SDS011;66403;50.832;10.950;2023-05-07T09:09:03;13.38;;;8.20;;
76801;SDS011;66403;50.832;10.950;2023-05-07T09:14:06;14.88;;;8.13;;
76801;SDS011;66403;50.832;10.950;2023-05-07T09:19:12;17.50;;;8.73;;
76801;SDS011;66403;50.832;10.950;2023-05-07T09:24:17;12.93;;;7.88;;
76801;SDS011;66403;50.832;10.950;2023-05-07T09:29:18;14.80;;;8.52;;
76801;SDS011;66403;50.832;10.950;2023-05-07T09:34:19;13.10;;;7.68;;
76801;SDS011;66403;50.832;10.950;2023-05-07T09:39:21;12.40;;;8.15;;
76801;SDS011;66403;50.832;10.950;2023-05-07T09:44:23;14.95;;;8.70;;
76801;SDS011;66403;50.832;10.950;2023-05-07T09:49:29;15.02;;;8.27;;
76801;SDS011;66403;50.832;10.950;2023-05-07T09:59:39;11.52;;;7.25;;
76801;SDS011;66403;50.832;10.950;2023-05-07T10:04:45;13.70;;;7.43;;
76801;SDS011;66403;50.832;10.950;2023-05-07T10:09:47;38.42;;;19.88;;
76801;SDS011;66403;50.832;10.950;2023-05-07T10:14:57;13.93;;;9.13;;
76801;SDS011;66403;50.832;10.950;2023-05-07T10:19:58;22.58;;;10.43;;
76801;SDS011;66403;50.832;10.950;2023-05-07T10:24:59;19.98;;;8.05;;
76801;SDS011;66403;50.832;10.950;2023-05-07T10:35:14;12.10;;;7.60;;
76801;SDS011;66403;50.832;10.950;2023-05-07T10:40:17;10.88;;;7.28;;
76801;SDS011;66403;50.832;10.950;2023-05-07T10:45:19;9.75;;;5.60;;
76801;SDS011;66403;50.832;10.950;2023-05-07T10:50:23;11.13;;;7.40;;
76801;SDS011;66403;50.832;10.950;2023-05-07T10:55:26;12.75;;;7.65;;
76801;SDS011;66403;50.832;10.950;2023-05-07T11:05:40;12.15;;;8.10;;
76801;SDS011;66403;50.832;10.950;2023-05-07T11:10:57;11.27;;;7.78;;
76801;SDS011;66403;50.832;10.950;2023-05-07T11:16:21;14.23;;;8.05;;
76801;SDS011;66403;50.832;10.950;2023-05-07T11:21:38;10.63;;;7.88;;
76801;SDS011;66403;50.832;10.950;2023-05-07T11:27:00;11.05;;;7.60;;
76801;SDS011;66403;50.832;10.950;2023-05-07T11:32:02;12.35;;;7.80;;
76801;SDS011;66403;50.832;10.950;2023-05-07T11:37:08;9.35;;;7.13;;
76801;SDS011;66403;50.832;10.950;2023-05-07T11:42:35;9.90;;;7.35;;
76801;SDS011;66403;50.832;10.950;2023-05-07T11:47:41;9.48;;;6.53;;
76801;SDS011;66403;50.832;10.950;2023-05-07T11:52:50;9.45;;;6.75;;
76801;SDS011;66403;50.832;10.950;2023-05-07T11:57:52;8.23;;;6.07;;
76801;SDS011;66403;50.832;10.950;2023-05-07T12:02:52;8.63;;;6.10;;
76801;SDS011;66403;50.832;10.950;2023-05-07T12:07:55;7.10;;;5.68;;
76801;SDS011;66403;50.832;10.950;2023-05-07T12:12:57;9.82;;;6.70;;
76801;SDS011;66403;50.832;10.950;2023-05-07T12:17:57;9.30;;;6.78;;
76801;SDS011;66403;50.832;10.950;2023-05-07T12:22:57;7.63;;;5.77;;
76801;SDS011;66403;50.832;10.950;2023-05-07T12:27:59;8.73;;;5.97;;
76801;SDS011;66403;50.832;10.950;2023-05-07T12:33:00;9.90;;;6.82;;
76801;SDS011;66403;50.832;10.950;2023-05-07T12:38:01;9.25;;;5.85;;
76801;SDS011;66403;50.832;10.950;2023-05-07T12:43:04;7.80;;;6.05;;
76801;SDS011;66403;50.832;10.950;2023-05-07T12:48:05;8.15;;;6.60;;
76801;SDS011;66403;50.832;10.950;2023-05-07T12:53:06;9.23;;;6.72;;
76801;SDS011;66403;50.832;10.950;2023-05-07T12:58:07;23.73;;;15.13;;
76801;SDS011;66403;50.832;10.950;2023-05-07T13:03:08;9.00;;;6.78;;
76801;SDS011;66403;50.832;10.950;2023-05-07T13:08:09;7.30;;;5.00;;
76801;SDS011;66403;50.832;10.950;2023-05-07T13:13:09;6.43;;;5.50;;
76801;SDS011;66403;50.832;10.950;2023-05-07T13:18:10;9.73;;;6.25;;
76801;SDS011;66403;50.832;10.950;2023-05-07T13:23:11;6.32;;;5.68;;
76801;SDS011;66403;50.832;10.950;2023-05-07T13:28:11;7.10;;;6.40;;
76801;SDS011;66403;50.832;10.950;2023-05-07T13:33:12;10.27;;;7.78;;
76801;SDS011;66403;50.832;10.950;2023-05-07T13:38:13;8.57;;;6.57;;
76801;SDS011;66403;50.832;10.950;2023-05-07T13:43:15;6.70;;;5.50;;
76801;SDS011;66403;50.832;10.950;2023-05-07T13:48:17;8.07;;;6.63;;
76801;SDS011;66403;50.832;10.950;2023-05-07T13:53:17;6.87;;;5.77;;
76801;SDS011;66403;50.832;10.950;2023-05-07T13:58:18;6.65;;;5.47;;
76801;SDS011;66403;50.832;10.950;2023-05-07T14:03:19;5.38;;;4.88;;
76801;SDS011;66403;50.832;10.950;2023-05-07T14:08:19;6.93;;;4.72;;
76801;SDS011;66403;50.832;10.950;2023-05-07T14:13:20;5.57;;;4.63;;
76801;SDS011;66403;50.832;10.950;2023-05-07T14:18:20;6.23;;;5.60;;
76801;SDS011;66403;50.832;10.950;2023-05-07T14:23:20;5.97;;;5.37;;
76801;SDS011;66403;50.832;10.950;2023-05-07T14:28:26;5.82;;;4.43;;
76801;SDS011;66403;50.832;10.950;2023-05-07T14:33:26;6.38;;;4.97;;
76801;SDS011;66403;50.832;10.950;2023-05-07T14:38:27;6.37;;;5.10;;
76801;SDS011;66403;50.832;10.950;2023-05-07T14:43:27;5.97;;;4.90;;
76801;SDS011;66403;50.832;10.950;2023-05-07T14:48:28;6.83;;;4.93;;
76801;SDS011;66403;50.832;10.950;2023-05-07T14:53:28;7.60;;;5.87;;
76801;SDS011;66403;50.832;10.950;2023-05-07T14:58:28;4.67;;;4.00;;
76801;SDS011;66403;50.832;10.950;2023-05-07T15:03:29;5.67;;;5.03;;
76801;SDS011;66403;50.832;10.950;2023-05-07T15:08:30;5.25;;;4.75;;
76801;SDS011;66403;50.832;10.950;2023-05-07T15:13:30;8.07;;;5.65;;
76801;SDS011;66403;50.832;10.950;2023-05-07T15:18:31;6.50;;;5.63;;
76801;SDS011;66403;50.832;10.950;2023-05-07T15:23:31;5.32;;;4.82;;
76801;SDS011;66403;50.832;10.950;2023-05-07T15:28:32;4.23;;;3.67;;
76801;SDS011;66403;50.832;10.950;2023-05-07T15:33:33;4.95;;;4.45;;
76801;SDS011;66403;50.832;10.950;2023-05-07T15:38:34;4.90;;;4.32;;
76801;SDS011;66403;50.832;10.950;2023-05-07T15:43:43;5.18;;;3.72;;
76801;SDS011;66403;50.832;10.950;2023-05-07T15:48:47;5.78;;;4.22;;
76801;SDS011;66403;50.832;10.950;2023-05-07T15:53:48;4.00;;;3.57;;
76801;SDS011;66403;50.832;10.950;2023-05-07T15:58:48;4.22;;;3.55;;
76801;SDS011;66403;50.832;10.950;2023-05-07T16:03:49;5.13;;;3.97;;
76801;SDS011;66403;50.832;10.950;2023-05-07T16:08:50;3.47;;;3.17;;
76801;SDS011;66403;50.832;10.950;2023-05-07T16:13:51;3.97;;;2.58;;
76801;SDS011;66403;50.832;10.950;2023-05-07T16:18:54;3.65;;;2.88;;
76801;SDS011;66403;50.832;10.950;2023-05-07T16:23:55;5.35;;;3.17;;
76801;SDS011;66403;50.832;10.950;2023-05-07T16:28:56;6.57;;;4.50;;
76801;SDS011;66403;50.832;10.950;2023-05-07T16:33:56;5.43;;;3.67;;
76801;SDS011;66403;50.832;10.950;2023-05-07T16:38:56;4.00;;;3.40;;
76801;SDS011;66403;50.832;10.950;2023-05-07T16:43:57;4.47;;;3.27;;
76801;SDS011;66403;50.832;10.950;2023-05-07T16:48:57;3.80;;;3.10;;
76801;SDS011;66403;50.832;10.950;2023-05-07T16:53:58;3.60;;;3.30;;
76801;SDS011;66403;50.832;10.950;2023-05-07T16:58:58;5.33;;;4.70;;
76801;SDS011;66403;50.832;10.950;2023-05-07T17:03:58;4.90;;;3.83;;
76801;SDS011;66403;50.832;10.950;2023-05-07T17:08:59;4.07;;;3.67;;
76801;SDS011;66403;50.832;10.950;2023-05-07T17:13:59;10.23;;;4.00;;
76801;SDS011;66403;50.832;10.950;2023-05-07T17:19:00;4.60;;;4.10;;
76801;SDS011;66403;50.832;10.950;2023-05-07T17:24:00;4.77;;;3.63;;
76801;SDS011;66403;50.832;10.950;2023-05-07T17:29:01;4.37;;;3.70;;
76801;SDS011;66403;50.832;10.950;2023-05-07T17:34:02;5.97;;;4.63;;
76801;SDS011;66403;50.832;10.950;2023-05-07T17:39:03;10.70;;;5.23;;
76801;SDS011;66403;50.832;10.950;2023-05-07T17:44:03;4.85;;;4.18;;
76801;SDS011;66403;50.832;10.950;2023-05-07T17:49:03;5.32;;;4.70;;
76801;SDS011;66403;50.832;10.950;2023-05-07T17:54:04;4.95;;;4.18;;
76801;SDS011;66403;50.832;10.950;2023-05-07T17:59:04;5.40;;;3.97;;
76801;SDS011;66403;50.832;10.950;2023-05-07T18:04:05;8.30;;;5.35;;
76801;SDS011;66403;50.832;10.950;2023-05-07T18:09:05;5.88;;;4.72;;
76801;SDS011;66403;50.832;10.950;2023-05-07T18:14:06;5.60;;;4.35;;
76801;SDS011;66403;50.832;10.950;2023-05-07T18:19:06;5.15;;;4.35;;
76801;SDS011;66403;50.832;10.950;2023-05-07T18:24:07;6.72;;;4.57;;
76801;SDS011;66403;50.832;10.950;2023-05-07T18:29:07;5.13;;;4.10;;
76801;SDS011;66403;50.832;10.950;2023-05-07T18:34:08;5.68;;;5.05;;
76801;SDS011;66403;50.832;10.950;2023-05-07T18:39:09;5.97;;;4.90;;
76801;SDS011;66403;50.832;10.950;2023-05-07T18:44:10;6.50;;;4.70;;
76801;SDS011;66403;50.832;10.950;2023-05-07T18:49:10;6.18;;;4.82;;
76801;SDS011;66403;50.832;10.950;2023-05-07T18:54:12;7.00;;;5.07;;
76801;SDS011;66403;50.832;10.950;2023-05-07T18:59:12;10.20;;;6.20;;
76801;SDS011;66403;50.832;10.950;2023-05-07T19:04:12;5.75;;;4.50;;
76801;SDS011;66403;50.832;10.950;2023-05-07T19:09:15;6.22;;;4.55;;
76801;SDS011;66403;50.832;10.950;2023-05-07T19:14:15;6.35;;;4.70;;
76801;SDS011;66403;50.832;10.950;2023-05-07T19:19:16;7.13;;;4.80;;
76801;SDS011;66403;50.832;10.950;2023-05-07T19:24:16;6.68;;;5.07;;
76801;SDS011;66403;50.832;10.950;2023-05-07T19:29:17;7.20;;;4.22;;
76801;SDS011;66403;50.832;10.950;2023-05-07T19:34:17;8.13;;;5.00;;
76801;SDS011;66403;50.832;10.950;2023-05-07T19:39:18;5.63;;;3.90;;
76801;SDS011;66403;50.832;10.950;2023-05-07T19:44:18;8.68;;;4.88;;
76801;SDS011;66403;50.832;10.950;2023-05-07T19:49:19;7.50;;;4.93;;
76801;SDS011;66403;50.832;10.950;2023-05-07T19:54:20;6.47;;;4.43;;
76801;SDS011;66403;50.832;10.950;2023-05-07T19:59:22;7.28;;;4.95;;
76801;SDS011;66403;50.832;10.950;2023-05-07T20:04:22;6.82;;;4.80;;
76801;SDS011;66403;50.832;10.950;2023-05-07T20:09:28;9.43;;;6.15;;
76801;SDS011;66403;50.832;10.950;2023-05-07T20:14:28;6.00;;;4.13;;
76801;SDS011;66403;50.832;10.950;2023-05-07T20:19:28;8.38;;;4.88;;
76801;SDS011;66403;50.832;10.950;2023-05-07T20:24:29;8.82;;;5.90;;
76801;SDS011;66403;50.832;10.950;2023-05-07T20:29:30;6.90;;;5.22;;
76801;SDS011;66403;50.832;10.950;2023-05-07T20:34:31;6.38;;;4.68;;
76801;SDS011;66403;50.832;10.950;2023-05-07T20:39:32;6.53;;;4.57;;
76801;SDS011;66403;50.832;10.950;2023-05-07T20:44:32;6.72;;;5.20;;
76801;SDS011;66403;50.832;10.950;2023-05-07T20:49:33;7.22;;;4.28;;
76801;SDS011;66403;50.832;10.950;2023-05-07T20:54:34;6.75;;;4.30;;
76801;SDS011;66403;50.832;10.950;2023-05-07T21:04:39;5.45;;;3.90;;
76801;SDS011;66403;50.832;10.950;2023-05-07T21:09:40;7.82;;;4.50;;
76801;SDS011;66403;50.832;10.950;2023-05-07T21:14:41;9.88;;;5.00;;
76801;SDS011;66403;50.832;10.950;2023-05-07T21:19:41;6.13;;;4.88;;
76801;SDS011;66403;50.832;10.950;2023-05-07T21:24:42;9.13;;;5.32;;
76801;SDS011;66403;50.832;10.950;2023-05-07T21:29:42;9.70;;;5.70;;
76801;SDS011;66403;50.832;10.950;2023-05-07T21:34:43;7.78;;;4.70;;
76801;SDS011;66403;50.832;10.950;2023-05-07T21:39:43;7.32;;;4.90;;
76801;SDS011;66403;50.832;10.950;2023-05-07T21:44:44;7.32;;;4.85;;
76801;SDS011;66403;50.832;10.950;2023-05-07T21:49:45;8.07;;;5.53;;
76801;SDS011;66403;50.832;10.950;2023-05-07T21:54:45;7.10;;;4.75;;
76801;SDS011;66403;50.832;10.950;2023-05-07T21:59:46;8.35;;;4.63;;
76801;SDS011;66403;50.832;10.950;2023-05-07T22:04:46;8.10;;;5.25;;
76801;SDS011;66403;50.832;10.950;2023-05-07T22:09:46;8.25;;;5.47;;
76801;SDS011;66403;50.832;10.950;2023-05-07T22:14:47;7.97;;;5.70;;
76801;SDS011;66403;50.832;10.950;2023-05-07T22:19:47;8.00;;;4.97;;
76801;SDS011;66403;50.832;10.950;2023-05-07T22:24:48;10.48;;;5.45;;
76801;SDS011;66403;50.832;10.950;2023-05-07T22:29:48;6.93;;;4.80;;
76801;SDS011;66403;50.832;10.950;2023-05-07T22:34:49;9.23;;;5.85;;
76801;SDS011;66403;50.832;10.950;2023-05-07T22:39:49;8.68;;;5.68;;
76801;SDS011;66403;50.832;10.950;2023-05-07T22:44:53;7.13;;;5.00;;
76801;SDS011;66403;50.832;10.950;2023-05-07T22:49:55;11.70;;;5.88;;
76801;SDS011;66403;50.832;10.950;2023-05-07T22:54:55;9.05;;;5.32;;
76801;SDS011;66403;50.832;10.950;2023-05-07T22:59:56;8.02;;;5.43;;
76801;SDS011;66403;50.832;10.950;2023-05-07T23:04:59;10.07;;;5.40;;
76801;SDS011;66403;50.832;10.950;2023-05-07T23:10:00;8.48;;;5.43;;
76801;SDS011;66403;50.832;10.950;2023-05-07T23:15:01;7.07;;;5.03;;
76801;SDS011;66403;50.832;10.950;2023-05-07T23:20:01;8.93;;;5.15;;
76801;SDS011;66403;50.832;10.950;2023-05-07T23:25:02;9.57;;;6.57;;
76801;SDS011;66403;50.832;10.950;2023-05-07T23:30:03;7.60;;;5.50;;
76801;SDS011;66403;50.832;10.950;2023-05-07T23:35:04;8.77;;;5.82;;
76801;SDS011;66403;50.832;10.950;2023-05-07T23:40:05;8.38;;;6.05;;
76801;SDS011;66403;50.832;10.950;2023-05-07T23:45:06;7.07;;;4.93;;
76801;SDS011;66403;50.832;10.950;2023-05-07T23:50:07;9.18;;;6.40;;
76801;SDS011;66403;50.832;10.950;2023-05-07T23:55:08;7.93;;;5.78;;
